sensor_id;sensor_type;location;lat;lon;timestamp;P1;durP1;ratioP1;P2;durP2;ratioP2
31760;SDS011;18335;51.486;7.562;2023-04-24T00:00:32;2.05;;;0.77;;
31760;SDS011;18335;51.486;7.562;2023-04-24T00:02:59;4.28;;;2.03;;
31760;SDS011;18335;51.486;7.562;2023-04-24T00:05:26;4.32;;;2.10;;
31760;SDS011;18335;51.486;7.562;2023-04-24T00:07:53;6.43;;;2.65;;
31760;SDS011;18335;51.486;7.562;2023-04-24T00:10:20;5.25;;;2.53;;
31760;SDS011;18335;51.486;7.562;2023-04-24T00:12:47;5.78;;;2.15;;
31760;SDS011;18335;51.486;7.562;2023-04-24T00:15:14;7.72;;;2.45;;
31760;SDS011;18335;51.486;7.562;2023-04-24T00:17:42;3.53;;;1.35;;
31760;SDS011;18335;51.486;7.562;2023-04-24T00:20:09;2.50;;;0.95;;
31760;SDS011;18335;51.486;7.562;2023-04-24T00:22:37;5.03;;;1.10;;
31760;SDS011;18335;51.486;7.562;2023-04-24T00:25:04;3.25;;;1.10;;
31760;SDS011;18335;51.486;7.562;2023-04-24T00:27:31;4.13;;;2.10;;
31760;SDS011;18335;51.486;7.562;2023-04-24T00:30:00;5.55;;;2.17;;
31760;SDS011;18335;51.486;7.562;2023-04-24T00:32:27;5.47;;;2.17;;
31760;SDS011;18335;51.486;7.562;2023-04-24T00:34:55;4.15;;;1.88;;
31760;SDS011;18335;51.486;7.562;2023-04-24T00:37:22;3.08;;;1.80;;
31760;SDS011;18335;51.486;7.562;2023-04-24T00:39:49;2.97;;;1.63;;
31760;SDS011;18335;51.486;7.562;2023-04-24T00:42:16;3.42;;;1.00;;
31760;SDS011;18335;51.486;7.562;2023-04-24T00:44:43;2.35;;;1.08;;
31760;SDS011;18335;51.486;7.562;2023-04-24T00:47:10;1.55;;;0.80;;
31760;SDS011;18335;51.486;7.562;2023-04-24T00:49:39;2.42;;;0.90;;
31760;SDS011;18335;51.486;7.562;2023-04-24T00:52:07;2.25;;;0.80;;
31760;SDS011;18335;51.486;7.562;2023-04-24T00:54:34;1.33;;;0.70;;
31760;SDS011;18335;51.486;7.562;2023-04-24T00:57:01;4.30;;;0.95;;
31760;SDS011;18335;51.486;7.562;2023-04-24T00:59:28;2.63;;;0.85;;
31760;SDS011;18335;51.486;7.562;2023-04-24T01:01:55;2.70;;;0.93;;
31760;SDS011;18335;51.486;7.562;2023-04-24T01:04:22;3.13;;;0.80;;
31760;SDS011;18335;51.486;7.562;2023-04-24T01:06:49;2.08;;;0.90;;
31760;SDS011;18335;51.486;7.562;2023-04-24T01:09:18;2.50;;;1.05;;
31760;SDS011;18335;51.486;7.562;2023-04-24T01:11:46;3.28;;;1.05;;
31760;SDS011;18335;51.486;7.562;2023-04-24T01:14:13;3.08;;;1.00;;
31760;SDS011;18335;51.486;7.562;2023-04-24T01:16:40;4.00;;;0.90;;
31760;SDS011;18335;51.486;7.562;2023-04-24T01:19:07;2.88;;;1.10;;
31760;SDS011;18335;51.486;7.562;2023-04-24T01:21:36;3.08;;;1.25;;
31760;SDS011;18335;51.486;7.562;2023-04-24T01:24:05;1.38;;;1.05;;
31760;SDS011;18335;51.486;7.562;2023-04-24T01:26:33;3.75;;;1.13;;
31760;SDS011;18335;51.486;7.562;2023-04-24T01:28:59;3.30;;;1.27;;
31760;SDS011;18335;51.486;7.562;2023-04-24T01:31:26;3.13;;;1.30;;
31760;SDS011;18335;51.486;7.562;2023-04-24T01:33:53;3.67;;;1.30;;
31760;SDS011;18335;51.486;7.562;2023-04-24T01:36:22;3.72;;;0.75;;
31760;SDS011;18335;51.486;7.562;2023-04-24T01:38:50;3.17;;;1.13;;
31760;SDS011;18335;51.486;7.562;2023-04-24T01:41:18;4.82;;;0.95;;
31760;SDS011;18335;51.486;7.562;2023-04-24T01:43:46;2.45;;;1.23;;
31760;SDS011;18335;51.486;7.562;2023-04-24T01:46:12;2.80;;;0.90;;
31760;SDS011;18335;51.486;7.562;2023-04-24T01:48:39;5.22;;;2.00;;
31760;SDS011;18335;51.486;7.562;2023-04-24T01:51:07;3.35;;;1.35;;
31760;SDS011;18335;51.486;7.562;2023-04-24T01:53:36;7.90;;;1.60;;
31760;SDS011;18335;51.486;7.562;2023-04-24T01:56:03;2.15;;;1.25;;
31760;SDS011;18335;51.486;7.562;2023-04-24T01:58:31;2.92;;;1.25;;
31760;SDS011;18335;51.486;7.562;2023-04-24T02:00:58;3.42;;;1.30;;
31760;SDS011;18335;51.486;7.562;2023-04-24T02:03:26;3.15;;;1.42;;
31760;SDS011;18335;51.486;7.562;2023-04-24T02:05:54;7.43;;;1.80;;
31760;SDS011;18335;51.486;7.562;2023-04-24T02:08:20;5.22;;;1.98;;
31760;SDS011;18335;51.486;7.562;2023-04-24T02:10:48;2.25;;;1.25;;
31760;SDS011;18335;51.486;7.562;2023-04-24T02:13:15;4.03;;;1.80;;
31760;SDS011;18335;51.486;7.562;2023-04-24T02:15:43;6.35;;;1.83;;
31760;SDS011;18335;51.486;7.562;2023-04-24T02:18:10;3.35;;;1.50;;
31760;SDS011;18335;51.486;7.562;2023-04-24T02:20:38;3.72;;;1.90;;
31760;SDS011;18335;51.486;7.562;2023-04-24T02:23:04;4.57;;;1.80;;
31760;SDS011;18335;51.486;7.562;2023-04-24T02:25:31;5.35;;;2.13;;
31760;SDS011;18335;51.486;7.562;2023-04-24T02:27:58;4.18;;;2.15;;
31760;SDS011;18335;51.486;7.562;2023-04-24T02:30:25;5.40;;;1.90;;
31760;SDS011;18335;51.486;7.562;2023-04-24T02:32:53;4.95;;;2.08;;
31760;SDS011;18335;51.486;7.562;2023-04-24T02:35:20;4.00;;;2.30;;
31760;SDS011;18335;51.486;7.562;2023-04-24T02:37:48;4.38;;;2.00;;
31760;SDS011;18335;51.486;7.562;2023-04-24T02:40:14;5.43;;;2.10;;
31760;SDS011;18335;51.486;7.562;2023-04-24T02:42:41;4.35;;;1.95;;
31760;SDS011;18335;51.486;7.562;2023-04-24T02:45:08;3.45;;;2.00;;
31760;SDS011;18335;51.486;7.562;2023-04-24T02:47:35;4.25;;;1.73;;
31760;SDS011;18335;51.486;7.562;2023-04-24T02:50:04;3.85;;;1.98;;
31760;SDS011;18335;51.486;7.562;2023-04-24T02:52:32;3.58;;;1.65;;
31760;SDS011;18335;51.486;7.562;2023-04-24T02:54:58;4.43;;;1.77;;
31760;SDS011;18335;51.486;7.562;2023-04-24T02:57:25;5.30;;;2.90;;
31760;SDS011;18335;51.486;7.562;2023-04-24T02:59:52;8.30;;;3.25;;
31760;SDS011;18335;51.486;7.562;2023-04-24T03:02:18;4.80;;;2.45;;
31760;SDS011;18335;51.486;7.562;2023-04-24T03:04:45;5.68;;;2.97;;
31760;SDS011;18335;51.486;7.562;2023-04-24T03:07:14;6.53;;;2.90;;
31760;SDS011;18335;51.486;7.562;2023-04-24T03:09:42;5.18;;;2.72;;
31760;SDS011;18335;51.486;7.562;2023-04-24T03:12:10;7.32;;;3.30;;
31760;SDS011;18335;51.486;7.562;2023-04-24T03:14:38;6.85;;;3.58;;
31760;SDS011;18335;51.486;7.562;2023-04-24T03:17:05;9.77;;;4.38;;
31760;SDS011;18335;51.486;7.562;2023-04-24T03:19:31;10.70;;;5.53;;
31760;SDS011;18335;51.486;7.562;2023-04-24T03:22:04;13.02;;;6.35;;
31760;SDS011;18335;51.486;7.562;2023-04-24T03:24:32;14.30;;;7.10;;
31760;SDS011;18335;51.486;7.562;2023-04-24T03:26:59;11.65;;;6.68;;
31760;SDS011;18335;51.486;7.562;2023-04-24T03:29:42;12.43;;;7.35;;
31760;SDS011;18335;51.486;7.562;2023-04-24T03:32:09;12.75;;;7.18;;
31760;SDS011;18335;51.486;7.562;2023-04-24T03:34:38;13.57;;;7.30;;
31760;SDS011;18335;51.486;7.562;2023-04-24T03:37:06;11.88;;;6.30;;
31760;SDS011;18335;51.486;7.562;2023-04-24T03:39:36;13.27;;;7.43;;
31760;SDS011;18335;51.486;7.562;2023-04-24T03:42:03;13.05;;;7.15;;
31760;SDS011;18335;51.486;7.562;2023-04-24T03:44:41;11.90;;;6.90;;
31760;SDS011;18335;51.486;7.562;2023-04-24T03:47:08;13.02;;;7.43;;
31760;SDS011;18335;51.486;7.562;2023-04-24T03:49:36;12.75;;;7.47;;
31760;SDS011;18335;51.486;7.562;2023-04-24T03:52:03;15.30;;;7.90;;
31760;SDS011;18335;51.486;7.562;2023-04-24T03:54:30;15.38;;;7.90;;
31760;SDS011;18335;51.486;7.562;2023-04-24T03:57:00;15.88;;;7.90;;
31760;SDS011;18335;51.486;7.562;2023-04-24T03:59:29;15.73;;;7.57;;
31760;SDS011;18335;51.486;7.562;2023-04-24T04:02:06;13.63;;;7.68;;
31760;SDS011;18335;51.486;7.562;2023-04-24T04:04:33;15.38;;;8.68;;
31760;SDS011;18335;51.486;7.562;2023-04-24T04:07:00;13.48;;;8.60;;
31760;SDS011;18335;51.486;7.562;2023-04-24T04:09:28;16.63;;;8.68;;
31760;SDS011;18335;51.486;7.562;2023-04-24T04:11:55;15.45;;;8.70;;
31760;SDS011;18335;51.486;7.562;2023-04-24T04:14:23;15.88;;;9.00;;
31760;SDS011;18335;51.486;7.562;2023-04-24T04:16:51;18.33;;;9.13;;
31760;SDS011;18335;51.486;7.562;2023-04-24T04:19:17;14.85;;;9.40;;
31760;SDS011;18335;51.486;7.562;2023-04-24T04:21:44;16.50;;;9.00;;
31760;SDS011;18335;51.486;7.562;2023-04-24T04:24:24;16.08;;;9.07;;
31760;SDS011;18335;51.486;7.562;2023-04-24T04:26:51;17.48;;;10.23;;
31760;SDS011;18335;51.486;7.562;2023-04-24T04:29:27;18.38;;;9.20;;
31760;SDS011;18335;51.486;7.562;2023-04-24T04:31:54;16.08;;;9.20;;
31760;SDS011;18335;51.486;7.562;2023-04-24T04:34:22;16.50;;;9.85;;
31760;SDS011;18335;51.486;7.562;2023-04-24T04:36:49;20.52;;;11.07;;
31760;SDS011;18335;51.486;7.562;2023-04-24T04:39:26;18.00;;;10.82;;
31760;SDS011;18335;51.486;7.562;2023-04-24T04:42:00;19.30;;;10.35;;
31760;SDS011;18335;51.486;7.562;2023-04-24T04:44:35;20.40;;;9.95;;
31760;SDS011;18335;51.486;7.562;2023-04-24T04:47:05;18.80;;;10.63;;
31760;SDS011;18335;51.486;7.562;2023-04-24T04:49:35;17.88;;;9.48;;
31760;SDS011;18335;51.486;7.562;2023-04-24T04:52:04;15.27;;;8.70;;
31760;SDS011;18335;51.486;7.562;2023-04-24T04:54:30;19.58;;;9.40;;
31760;SDS011;18335;51.486;7.562;2023-04-24T04:56:57;18.08;;;9.98;;
31760;SDS011;18335;51.486;7.562;2023-04-24T04:59:24;15.20;;;9.48;;
31760;SDS011;18335;51.486;7.562;2023-04-24T05:01:58;14.90;;;9.40;;
31760;SDS011;18335;51.486;7.562;2023-04-24T05:04:25;17.58;;;9.93;;
31760;SDS011;18335;51.486;7.562;2023-04-24T05:06:52;15.75;;;10.25;;
31760;SDS011;18335;51.486;7.562;2023-04-24T05:09:21;19.38;;;10.27;;
31760;SDS011;18335;51.486;7.562;2023-04-24T05:11:52;18.77;;;10.10;;
31760;SDS011;18335;51.486;7.562;2023-04-24T05:14:21;18.73;;;9.98;;
31760;SDS011;18335;51.486;7.562;2023-04-24T05:16:48;15.55;;;10.57;;
31760;SDS011;18335;51.486;7.562;2023-04-24T05:19:19;19.73;;;11.82;;
31760;SDS011;18335;51.486;7.562;2023-04-24T05:21:46;19.95;;;11.05;;
31760;SDS011;18335;51.486;7.562;2023-04-24T05:24:14;19.98;;;11.20;;
31760;SDS011;18335;51.486;7.562;2023-04-24T05:26:59;18.63;;;11.02;;
31760;SDS011;18335;51.486;7.562;2023-04-24T05:29:35;18.73;;;11.27;;
31760;SDS011;18335;51.486;7.562;2023-04-24T05:32:04;15.18;;;9.55;;
31760;SDS011;18335;51.486;7.562;2023-04-24T05:34:32;15.43;;;9.40;;
31760;SDS011;18335;51.486;7.562;2023-04-24T05:36:59;15.15;;;8.43;;
31760;SDS011;18335;51.486;7.562;2023-04-24T05:39:26;16.13;;;9.25;;
31760;SDS011;18335;51.486;7.562;2023-04-24T05:41:53;13.63;;;8.52;;
31760;SDS011;18335;51.486;7.562;2023-04-24T05:44:23;17.45;;;7.72;;
31760;SDS011;18335;51.486;7.562;2023-04-24T05:46:49;15.13;;;7.93;;
31760;SDS011;18335;51.486;7.562;2023-04-24T05:49:16;12.70;;;7.15;;
31760;SDS011;18335;51.486;7.562;2023-04-24T05:51:45;12.55;;;6.93;;
31760;SDS011;18335;51.486;7.562;2023-04-24T05:54:13;14.70;;;8.43;;
31760;SDS011;18335;51.486;7.562;2023-04-24T05:56:40;13.35;;;7.75;;
31760;SDS011;18335;51.486;7.562;2023-04-24T05:59:07;20.08;;;10.15;;
31760;SDS011;18335;51.486;7.562;2023-04-24T06:01:35;14.40;;;7.25;;
31760;SDS011;18335;51.486;7.562;2023-04-24T06:04:09;14.13;;;7.03;;
31760;SDS011;18335;51.486;7.562;2023-04-24T06:06:35;10.95;;;7.13;;
31760;SDS011;18335;51.486;7.562;2023-04-24T06:09:04;14.18;;;7.85;;
31760;SDS011;18335;51.486;7.562;2023-04-24T06:11:31;13.88;;;7.45;;
31760;SDS011;18335;51.486;7.562;2023-04-24T06:13:58;13.05;;;6.70;;
31760;SDS011;18335;51.486;7.562;2023-04-24T06:16:37;13.93;;;7.40;;
31760;SDS011;18335;51.486;7.562;2023-04-24T06:19:13;14.23;;;7.20;;
31760;SDS011;18335;51.486;7.562;2023-04-24T06:21:40;14.70;;;8.38;;
31760;SDS011;18335;51.486;7.562;2023-04-24T06:24:08;11.32;;;6.35;;
31760;SDS011;18335;51.486;7.562;2023-04-24T06:26:35;12.32;;;7.05;;
31760;SDS011;18335;51.486;7.562;2023-04-24T06:29:02;13.63;;;6.97;;
31760;SDS011;18335;51.486;7.562;2023-04-24T06:31:29;12.35;;;7.40;;
31760;SDS011;18335;51.486;7.562;2023-04-24T06:33:55;11.63;;;6.35;;
31760;SDS011;18335;51.486;7.562;2023-04-24T06:36:23;12.68;;;6.85;;
31760;SDS011;18335;51.486;7.562;2023-04-24T06:38:49;10.70;;;5.55;;
31760;SDS011;18335;51.486;7.562;2023-04-24T06:41:17;12.98;;;5.57;;
31760;SDS011;18335;51.486;7.562;2023-04-24T06:43:44;10.60;;;5.68;;
31760;SDS011;18335;51.486;7.562;2023-04-24T06:46:11;8.45;;;5.10;;
31760;SDS011;18335;51.486;7.562;2023-04-24T06:48:38;11.15;;;4.95;;
31760;SDS011;18335;51.486;7.562;2023-04-24T06:51:05;10.02;;;5.00;;
31760;SDS011;18335;51.486;7.562;2023-04-24T06:53:32;10.93;;;5.00;;
31760;SDS011;18335;51.486;7.562;2023-04-24T06:55:58;7.97;;;4.15;;
31760;SDS011;18335;51.486;7.562;2023-04-24T06:58:27;6.75;;;3.58;;
31760;SDS011;18335;51.486;7.562;2023-04-24T07:00:53;8.05;;;3.78;;
31760;SDS011;18335;51.486;7.562;2023-04-24T07:03:20;8.95;;;4.07;;
31760;SDS011;18335;51.486;7.562;2023-04-24T07:05:47;8.68;;;4.47;;
31760;SDS011;18335;51.486;7.562;2023-04-24T07:08:14;8.90;;;4.55;;
31760;SDS011;18335;51.486;7.562;2023-04-24T07:10:42;10.13;;;4.53;;
31760;SDS011;18335;51.486;7.562;2023-04-24T07:13:10;9.45;;;4.78;;
31760;SDS011;18335;51.486;7.562;2023-04-24T07:15:38;9.45;;;4.70;;
31760;SDS011;18335;51.486;7.562;2023-04-24T07:18:06;10.75;;;4.40;;
31760;SDS011;18335;51.486;7.562;2023-04-24T07:20:32;11.02;;;5.43;;
31760;SDS011;18335;51.486;7.562;2023-04-24T07:22:59;9.52;;;4.75;;
31760;SDS011;18335;51.486;7.562;2023-04-24T07:25:26;12.63;;;5.60;;
31760;SDS011;18335;51.486;7.562;2023-04-24T07:27:53;10.23;;;6.28;;
31760;SDS011;18335;51.486;7.562;2023-04-24T07:30:20;11.23;;;6.85;;
31760;SDS011;18335;51.486;7.562;2023-04-24T07:32:48;12.50;;;7.03;;
31760;SDS011;18335;51.486;7.562;2023-04-24T07:35:14;12.07;;;7.45;;
31760;SDS011;18335;51.486;7.562;2023-04-24T07:37:41;11.32;;;6.45;;
31760;SDS011;18335;51.486;7.562;2023-04-24T07:40:11;12.65;;;7.40;;
31760;SDS011;18335;51.486;7.562;2023-04-24T07:42:38;10.20;;;5.72;;
31760;SDS011;18335;51.486;7.562;2023-04-24T07:45:05;10.98;;;4.95;;
31760;SDS011;18335;51.486;7.562;2023-04-24T07:47:32;10.65;;;6.53;;
31760;SDS011;18335;51.486;7.562;2023-04-24T07:50:01;11.35;;;5.60;;
31760;SDS011;18335;51.486;7.562;2023-04-24T07:52:28;8.65;;;5.00;;
31760;SDS011;18335;51.486;7.562;2023-04-24T07:54:55;9.95;;;4.90;;
31760;SDS011;18335;51.486;7.562;2023-04-24T07:57:23;9.23;;;4.82;;
31760;SDS011;18335;51.486;7.562;2023-04-24T07:59:50;10.88;;;5.05;;
31760;SDS011;18335;51.486;7.562;2023-04-24T08:02:17;9.82;;;5.40;;
31760;SDS011;18335;51.486;7.562;2023-04-24T08:04:43;12.80;;;4.82;;
31760;SDS011;18335;51.486;7.562;2023-04-24T08:07:11;10.05;;;4.43;;
31760;SDS011;18335;51.486;7.562;2023-04-24T08:09:39;10.00;;;4.30;;
31760;SDS011;18335;51.486;7.562;2023-04-24T08:12:06;5.45;;;2.83;;
31760;SDS011;18335;51.486;7.562;2023-04-24T08:14:32;5.05;;;2.80;;
31760;SDS011;18335;51.486;7.562;2023-04-24T08:16:59;6.07;;;2.60;;
31760;SDS011;18335;51.486;7.562;2023-04-24T08:19:26;5.15;;;2.15;;
31760;SDS011;18335;51.486;7.562;2023-04-24T08:21:53;4.43;;;2.25;;
31760;SDS011;18335;51.486;7.562;2023-04-24T08:24:21;4.93;;;2.20;;
31760;SDS011;18335;51.486;7.562;2023-04-24T08:26:48;4.45;;;1.70;;
31760;SDS011;18335;51.486;7.562;2023-04-24T08:29:20;3.47;;;1.30;;
31760;SDS011;18335;51.486;7.562;2023-04-24T08:31:47;1.88;;;1.20;;
31760;SDS011;18335;51.486;7.562;2023-04-24T08:34:13;1.77;;;1.17;;
31760;SDS011;18335;51.486;7.562;2023-04-24T08:36:43;5.55;;;1.25;;
31760;SDS011;18335;51.486;7.562;2023-04-24T08:39:13;2.03;;;0.60;;
31760;SDS011;18335;51.486;7.562;2023-04-24T08:41:42;2.28;;;0.70;;
31760;SDS011;18335;51.486;7.562;2023-04-24T08:44:10;2.03;;;0.70;;
31760;SDS011;18335;51.486;7.562;2023-04-24T08:46:38;1.50;;;0.68;;
31760;SDS011;18335;51.486;7.562;2023-04-24T08:49:07;1.50;;;0.63;;
31760;SDS011;18335;51.486;7.562;2023-04-24T08:51:34;0.95;;;0.55;;
31760;SDS011;18335;51.486;7.562;2023-04-24T08:54:03;0.63;;;0.50;;
31760;SDS011;18335;51.486;7.562;2023-04-24T08:56:30;2.28;;;0.60;;
31760;SDS011;18335;51.486;7.562;2023-04-24T08:59:01;0.32;;;0.32;;
31760;SDS011;18335;51.486;7.562;2023-04-24T09:01:28;1.33;;;0.30;;
31760;SDS011;18335;51.486;7.562;2023-04-24T09:03:55;0.80;;;0.32;;
31760;SDS011;18335;51.486;7.562;2023-04-24T09:06:23;0.55;;;0.25;;
31760;SDS011;18335;51.486;7.562;2023-04-24T09:08:50;0.70;;;0.35;;
31760;SDS011;18335;51.486;7.562;2023-04-24T09:11:21;0.57;;;0.32;;
31760;SDS011;18335;51.486;7.562;2023-04-24T09:13:49;1.08;;;0.50;;
31760;SDS011;18335;51.486;7.562;2023-04-24T09:16:18;1.20;;;0.40;;
31760;SDS011;18335;51.486;7.562;2023-04-24T09:18:48;1.35;;;0.50;;
31760;SDS011;18335;51.486;7.562;2023-04-24T09:21:15;1.50;;;0.52;;
31760;SDS011;18335;51.486;7.562;2023-04-24T09:23:41;2.58;;;0.40;;
31760;SDS011;18335;51.486;7.562;2023-04-24T09:26:09;1.35;;;0.43;;
31760;SDS011;18335;51.486;7.562;2023-04-24T09:28:37;0.60;;;0.40;;
31760;SDS011;18335;51.486;7.562;2023-04-24T09:31:05;1.50;;;0.50;;
31760;SDS011;18335;51.486;7.562;2023-04-24T09:33:35;1.70;;;0.77;;
31760;SDS011;18335;51.486;7.562;2023-04-24T09:36:02;2.47;;;0.52;;
31760;SDS011;18335;51.486;7.562;2023-04-24T09:38:33;2.58;;;0.80;;
31760;SDS011;18335;51.486;7.562;2023-04-24T09:41:01;5.55;;;0.80;;
31760;SDS011;18335;51.486;7.562;2023-04-24T09:43:28;0.95;;;0.65;;
31760;SDS011;18335;51.486;7.562;2023-04-24T09:45:56;3.05;;;1.00;;
31760;SDS011;18335;51.486;7.562;2023-04-24T09:48:30;3.53;;;0.80;;
31760;SDS011;18335;51.486;7.562;2023-04-24T09:50:59;1.95;;;1.15;;
31760;SDS011;18335;51.486;7.562;2023-04-24T09:53:27;6.03;;;1.20;;
31760;SDS011;18335;51.486;7.562;2023-04-24T09:55:54;2.38;;;1.25;;
31760;SDS011;18335;51.486;7.562;2023-04-24T09:58:24;5.43;;;1.30;;
31760;SDS011;18335;51.486;7.562;2023-04-24T10:00:53;3.20;;;1.50;;
31760;SDS011;18335;51.486;7.562;2023-04-24T10:03:23;1.88;;;0.77;;
31760;SDS011;18335;51.486;7.562;2023-04-24T10:05:51;2.65;;;1.25;;
31760;SDS011;18335;51.486;7.562;2023-04-24T10:08:20;4.05;;;1.50;;
31760;SDS011;18335;51.486;7.562;2023-04-24T10:10:47;2.65;;;1.30;;
31760;SDS011;18335;51.486;7.562;2023-04-24T10:13:14;2.22;;;1.38;;
31760;SDS011;18335;51.486;7.562;2023-04-24T10:15:41;4.95;;;1.30;;
31760;SDS011;18335;51.486;7.562;2023-04-24T10:18:09;3.53;;;1.40;;
31760;SDS011;18335;51.486;7.562;2023-04-24T10:20:37;2.65;;;0.93;;
31760;SDS011;18335;51.486;7.562;2023-04-24T10:23:05;5.85;;;1.25;;
31760;SDS011;18335;51.486;7.562;2023-04-24T10:25:34;3.25;;;1.25;;
31760;SDS011;18335;51.486;7.562;2023-04-24T10:28:03;2.47;;;1.38;;
31760;SDS011;18335;51.486;7.562;2023-04-24T10:30:30;4.93;;;1.48;;
31760;SDS011;18335;51.486;7.562;2023-04-24T10:33:00;4.25;;;2.28;;
31760;SDS011;18335;51.486;7.562;2023-04-24T10:35:27;6.25;;;2.47;;
31760;SDS011;18335;51.486;7.562;2023-04-24T10:37:58;4.50;;;2.13;;
31760;SDS011;18335;51.486;7.562;2023-04-24T10:40:30;6.82;;;1.98;;
31760;SDS011;18335;51.486;7.562;2023-04-24T10:43:01;5.78;;;2.15;;
31760;SDS011;18335;51.486;7.562;2023-04-24T10:45:31;6.97;;;2.33;;
31760;SDS011;18335;51.486;7.562;2023-04-24T10:47:58;7.45;;;2.70;;
31760;SDS011;18335;51.486;7.562;2023-04-24T10:50:27;8.85;;;2.63;;
31760;SDS011;18335;51.486;7.562;2023-04-24T10:53:05;8.38;;;3.38;;
31760;SDS011;18335;51.486;7.562;2023-04-24T10:55:39;7.35;;;2.47;;
31760;SDS011;18335;51.486;7.562;2023-04-24T10:58:09;5.95;;;2.55;;
31760;SDS011;18335;51.486;7.562;2023-04-24T11:00:37;7.65;;;3.58;;
31760;SDS011;18335;51.486;7.562;2023-04-24T11:03:04;6.50;;;2.80;;
31760;SDS011;18335;51.486;7.562;2023-04-24T11:05:48;5.97;;;2.85;;
31760;SDS011;18335;51.486;7.562;2023-04-24T11:08:21;8.75;;;4.05;;
31760;SDS011;18335;51.486;7.562;2023-04-24T11:11:00;7.53;;;2.92;;
31760;SDS011;18335;51.486;7.562;2023-04-24T11:16:36;8.45;;;3.83;;
31760;SDS011;18335;51.486;7.562;2023-04-24T11:19:06;7.72;;;3.53;;
31760;SDS011;18335;51.486;7.562;2023-04-24T11:21:40;9.40;;;4.00;;
31760;SDS011;18335;51.486;7.562;2023-04-24T11:24:24;12.30;;;4.22;;
31760;SDS011;18335;51.486;7.562;2023-04-24T11:26:53;11.73;;;4.20;;
31760;SDS011;18335;51.486;7.562;2023-04-24T11:29:22;11.48;;;4.03;;
31760;SDS011;18335;51.486;7.562;2023-04-24T11:31:49;14.65;;;6.00;;
31760;SDS011;18335;51.486;7.562;2023-04-24T11:34:17;14.95;;;5.57;;
31760;SDS011;18335;51.486;7.562;2023-04-24T11:36:44;11.02;;;5.22;;
31760;SDS011;18335;51.486;7.562;2023-04-24T11:39:12;14.70;;;6.00;;
31760;SDS011;18335;51.486;7.562;2023-04-24T11:41:39;13.45;;;6.60;;
31760;SDS011;18335;51.486;7.562;2023-04-24T11:44:06;16.80;;;6.47;;
31760;SDS011;18335;51.486;7.562;2023-04-24T11:46:35;12.65;;;6.18;;
31760;SDS011;18335;51.486;7.562;2023-04-24T11:49:05;18.38;;;7.03;;
31760;SDS011;18335;51.486;7.562;2023-04-24T11:51:32;15.65;;;7.00;;
31760;SDS011;18335;51.486;7.562;2023-04-24T11:53:59;18.73;;;7.25;;
31760;SDS011;18335;51.486;7.562;2023-04-24T11:56:26;17.30;;;6.57;;
31760;SDS011;18335;51.486;7.562;2023-04-24T11:58:52;18.38;;;6.43;;
31760;SDS011;18335;51.486;7.562;2023-04-24T12:01:20;21.52;;;7.22;;
31760;SDS011;18335;51.486;7.562;2023-04-24T12:03:49;18.00;;;7.28;;
31760;SDS011;18335;51.486;7.562;2023-04-24T12:06:16;15.85;;;6.90;;
31760;SDS011;18335;51.486;7.562;2023-04-24T12:08:47;15.43;;;7.32;;
31760;SDS011;18335;51.486;7.562;2023-04-24T12:11:15;16.48;;;7.75;;
31760;SDS011;18335;51.486;7.562;2023-04-24T12:13:44;14.73;;;7.10;;
31760;SDS011;18335;51.486;7.562;2023-04-24T12:16:11;17.73;;;7.75;;
31760;SDS011;18335;51.486;7.562;2023-04-24T12:18:41;22.73;;;7.50;;
31760;SDS011;18335;51.486;7.562;2023-04-24T12:21:17;14.00;;;6.38;;
31760;SDS011;18335;51.486;7.562;2023-04-24T12:23:44;13.52;;;7.75;;
31760;SDS011;18335;51.486;7.562;2023-04-24T12:26:11;17.83;;;5.55;;
31760;SDS011;18335;51.486;7.562;2023-04-24T12:28:38;18.65;;;5.95;;
31760;SDS011;18335;51.486;7.562;2023-04-24T12:31:06;14.57;;;5.65;;
31760;SDS011;18335;51.486;7.562;2023-04-24T12:33:34;14.27;;;5.57;;
31760;SDS011;18335;51.486;7.562;2023-04-24T12:36:01;18.23;;;5.45;;
31760;SDS011;18335;51.486;7.562;2023-04-24T12:38:30;15.68;;;4.85;;
31760;SDS011;18335;51.486;7.562;2023-04-24T12:41:05;13.93;;;4.85;;
31760;SDS011;18335;51.486;7.562;2023-04-24T12:43:34;15.73;;;4.57;;
31760;SDS011;18335;51.486;7.562;2023-04-24T12:46:01;15.35;;;5.63;;
31760;SDS011;18335;51.486;7.562;2023-04-24T12:48:28;14.55;;;4.68;;
31760;SDS011;18335;51.486;7.562;2023-04-24T12:50:56;20.23;;;5.47;;
31760;SDS011;18335;51.486;7.562;2023-04-24T12:53:26;11.30;;;4.28;;
31760;SDS011;18335;51.486;7.562;2023-04-24T12:55:56;16.25;;;4.95;;
31760;SDS011;18335;51.486;7.562;2023-04-24T12:58:23;12.57;;;4.18;;
31760;SDS011;18335;51.486;7.562;2023-04-24T13:00:50;12.75;;;4.47;;
31760;SDS011;18335;51.486;7.562;2023-04-24T13:03:17;11.65;;;4.07;;
31760;SDS011;18335;51.486;7.562;2023-04-24T13:05:44;10.25;;;3.63;;
31760;SDS011;18335;51.486;7.562;2023-04-24T13:08:11;13.75;;;5.85;;
31760;SDS011;18335;51.486;7.562;2023-04-24T13:10:39;12.05;;;3.97;;
31760;SDS011;18335;51.486;7.562;2023-04-24T13:13:08;13.18;;;5.50;;
31760;SDS011;18335;51.486;7.562;2023-04-24T13:15:35;13.13;;;4.22;;
31760;SDS011;18335;51.486;7.562;2023-04-24T13:18:01;13.07;;;4.38;;
31760;SDS011;18335;51.486;7.562;2023-04-24T13:20:28;13.02;;;4.07;;
31760;SDS011;18335;51.486;7.562;2023-04-24T13:22:55;12.73;;;5.38;;
31760;SDS011;18335;51.486;7.562;2023-04-24T13:25:22;12.10;;;4.28;;
31760;SDS011;18335;51.486;7.562;2023-04-24T13:27:50;11.82;;;4.20;;
31760;SDS011;18335;51.486;7.562;2023-04-24T13:30:18;10.20;;;3.45;;
31760;SDS011;18335;51.486;7.562;2023-04-24T13:32:45;13.93;;;4.07;;
31760;SDS011;18335;51.486;7.562;2023-04-24T13:35:12;12.52;;;3.40;;
31760;SDS011;18335;51.486;7.562;2023-04-24T13:37:39;12.23;;;3.67;;
31760;SDS011;18335;51.486;7.562;2023-04-24T13:40:06;10.63;;;3.90;;
31760;SDS011;18335;51.486;7.562;2023-04-24T13:42:33;12.73;;;3.92;;
31760;SDS011;18335;51.486;7.562;2023-04-24T13:45:00;9.43;;;3.20;;
31760;SDS011;18335;51.486;7.562;2023-04-24T13:47:28;10.02;;;3.25;;
31760;SDS011;18335;51.486;7.562;2023-04-24T13:49:55;9.38;;;2.80;;
31760;SDS011;18335;51.486;7.562;2023-04-24T13:52:22;11.98;;;3.72;;
31760;SDS011;18335;51.486;7.562;2023-04-24T13:54:48;12.15;;;3.78;;
31760;SDS011;18335;51.486;7.562;2023-04-24T13:57:15;9.32;;;3.50;;
31760;SDS011;18335;51.486;7.562;2023-04-24T13:59:42;8.30;;;2.88;;
31760;SDS011;18335;51.486;7.562;2023-04-24T14:02:10;6.72;;;2.50;;
31760;SDS011;18335;51.486;7.562;2023-04-24T14:04:38;9.70;;;2.78;;
31760;SDS011;18335;51.486;7.562;2023-04-24T14:07:05;9.18;;;2.97;;
31760;SDS011;18335;51.486;7.562;2023-04-24T14:09:33;5.85;;;2.47;;
31760;SDS011;18335;51.486;7.562;2023-04-24T14:12:00;8.20;;;3.25;;
31760;SDS011;18335;51.486;7.562;2023-04-24T14:14:28;10.35;;;2.25;;
31760;SDS011;18335;51.486;7.562;2023-04-24T14:16:55;5.90;;;2.08;;
31760;SDS011;18335;51.486;7.562;2023-04-24T14:19:22;6.40;;;2.70;;
31760;SDS011;18335;51.486;7.562;2023-04-24T14:21:50;6.63;;;1.73;;
31760;SDS011;18335;51.486;7.562;2023-04-24T14:24:17;7.85;;;2.97;;
31760;SDS011;18335;51.486;7.562;2023-04-24T14:26:43;6.50;;;1.75;;
31760;SDS011;18335;51.486;7.562;2023-04-24T14:29:10;6.95;;;1.63;;
31760;SDS011;18335;51.486;7.562;2023-04-24T14:31:37;8.95;;;1.90;;
31760;SDS011;18335;51.486;7.562;2023-04-24T14:34:04;3.45;;;1.58;;
31760;SDS011;18335;51.486;7.562;2023-04-24T14:36:30;5.75;;;2.95;;
31760;SDS011;18335;51.486;7.562;2023-04-24T14:38:58;6.60;;;1.98;;
31760;SDS011;18335;51.486;7.562;2023-04-24T14:41:28;6.63;;;2.45;;
31760;SDS011;18335;51.486;7.562;2023-04-24T14:43:55;6.55;;;1.95;;
31760;SDS011;18335;51.486;7.562;2023-04-24T14:46:21;5.35;;;1.83;;
31760;SDS011;18335;51.486;7.562;2023-04-24T14:48:48;3.85;;;1.30;;